createdAt,value
2019-05-07T00:03:32.811Z,9.98
2019-05-07T00:08:38.357Z,9.89
2019-05-07T00:13:44.437Z,9.81
2019-05-07T00:18:52.409Z,9.77
2019-05-07T00:23:57.203Z,9.74
2019-05-07T00:29:02.617Z,9.75
2019-05-07T00:34:08.126Z,9.76
2019-05-07T00:39:35.529Z,9.80
2019-05-07T00:44:57.358Z,9.81
2019-05-07T00:50:07.313Z,9.83
2019-05-07T00:55:12.727Z,9.86
2019-05-07T01:00:18.152Z,9.85
2019-05-07T01:05:23.583Z,9.78
2019-05-07T01:10:28.984Z,9.68
2019-05-07T01:15:34.881Z,9.55
2019-05-07T01:20:42.267Z,9.44
2019-05-07T01:25:47.489Z,9.37
2019-05-07T01:30:53.070Z,9.35
2019-05-07T01:36:22.361Z,9.36
2019-05-07T01:41:27.137Z,9.41
2019-05-07T01:46:32.585Z,9.46
2019-05-07T01:51:37.979Z,9.49
2019-05-07T01:56:43.391Z,9.51
2019-05-07T02:01:52.294Z,9.53
2019-05-07T02:07:15.319Z,9.50
2019-05-07T02:12:25.116Z,9.44
2019-05-07T02:17:32.237Z,9.41
2019-05-07T02:22:37.751Z,9.41
2019-05-07T02:27:43.153Z,9.40
2019-05-07T02:32:48.579Z,9.39
2019-05-07T02:38:03.113Z,9.39
2019-05-07T02:43:08.201Z,9.39
2019-05-07T02:48:15.439Z,9.40
2019-05-07T02:53:48.766Z,9.42
2019-05-07T02:58:54.159Z,9.46
2019-05-07T03:03:59.589Z,9.47
2019-05-07T03:09:06.387Z,9.51
2019-05-07T03:14:14.105Z,9.51
2019-05-07T03:19:19.057Z,9.53
2019-05-07T03:24:39.357Z,9.54
2019-05-07T03:29:53.499Z,9.54
2019-05-07T03:35:15.676Z,9.54
2019-05-07T03:40:17.592Z,9.56
2019-05-07T03:45:43.235Z,9.56
2019-05-07T03:50:49.059Z,9.59
2019-05-07T03:55:54.473Z,9.59
2019-05-07T04:00:59.871Z,9.63
2019-05-07T04:06:05.532Z,9.66
2019-05-07T04:11:13.407Z,9.69
2019-05-07T04:16:18.089Z,9.73
2019-05-07T04:21:23.563Z,9.77
2019-05-07T04:26:38.444Z,9.86
2019-05-07T04:31:44.051Z,9.92
2019-05-07T04:36:53.158Z,9.98
2019-05-07T04:41:57.584Z,10.04
2019-05-07T04:47:04.293Z,10.11
2019-05-07T04:52:15.257Z,10.21
2019-05-07T04:57:26.965Z,10.31
2019-05-07T05:02:48.546Z,10.46
2019-05-07T05:07:54.015Z,10.61
2019-05-07T05:12:59.426Z,10.79
2019-05-07T05:18:04.843Z,10.98
2019-05-07T05:23:17.975Z,11.18
2019-05-07T05:28:23.545Z,11.39
2019-05-07T05:33:29.033Z,11.56
2019-05-07T05:38:34.466Z,11.80
2019-05-07T05:43:45.768Z,12.04
2019-05-07T05:48:52.005Z,12.43
2019-05-07T05:54:05.349Z,12.87
2019-05-07T05:59:46.939Z,13.37
2019-05-07T06:05:02.169Z,14.29
2019-05-07T06:10:22.696Z,15.47
2019-05-07T06:15:45.271Z,17.57
2019-05-07T06:21:04.778Z,20.11
2019-05-07T06:26:12.650Z,22.32
2019-05-07T06:31:17.560Z,23.93
2019-05-07T06:36:23.013Z,25.30
2019-05-07T06:41:45.636Z,26.36
2019-05-07T06:46:52.640Z,26.64
2019-05-07T06:51:58.416Z,26.98
2019-05-07T06:57:03.828Z,27.74
2019-05-07T07:02:26.743Z,28.42
2019-05-07T07:07:42.124Z,28.63
2019-05-07T07:12:48.234Z,29.63
2019-05-07T07:17:53.949Z,30.11
2019-05-07T07:22:59.786Z,28.85
2019-05-07T07:28:05.288Z,27.32
2019-05-07T07:33:12.201Z,25.75
2019-05-07T07:38:33.517Z,24.36
2019-05-07T07:43:39.122Z,22.88
2019-05-07T07:48:44.805Z,22.05
2019-05-07T07:53:52.032Z,21.24
2019-05-07T07:59:16.428Z,20.26
2019-05-07T08:04:22.956Z,20.09
2019-05-07T08:09:28.586Z,20.22
2019-05-07T08:14:34.229Z,21.03
2019-05-07T08:19:39.665Z,21.83
2019-05-07T08:24:45.189Z,22.71
2019-05-07T08:29:52.453Z,23.57
2019-05-07T08:35:14.323Z,23.84
2019-05-07T08:40:21.936Z,24.33
2019-05-07T08:45:44.538Z,25.13
2019-05-07T08:50:49.939Z,25.64
2019-05-07T08:55:55.421Z,26.43
2019-05-07T09:01:03.000Z,27.76
2019-05-07T09:06:08.165Z,30.20
2019-05-07T09:11:13.877Z,31.53
2019-05-07T09:16:19.624Z,32.38
2019-05-07T09:21:25.374Z,32.08
2019-05-07T09:26:38.017Z,31.08
2019-05-07T09:32:03.018Z,29.44
2019-05-07T09:37:12.434Z,27.73
2019-05-07T09:42:17.977Z,26.51
2019-05-07T09:47:23.473Z,25.29
2019-05-07T09:52:28.940Z,24.06
2019-05-07T09:57:34.830Z,22.89
2019-05-07T10:02:42.327Z,21.80
2019-05-07T10:07:47.619Z,21.00
2019-05-07T10:13:12.182Z,20.57
2019-05-07T10:18:19.256Z,20.16
2019-05-07T10:23:24.814Z,19.76
2019-05-07T10:28:32.061Z,19.46
2019-05-07T10:33:37.398Z,19.44
2019-05-07T10:38:42.917Z,19.59
2019-05-07T10:43:48.418Z,19.71
2019-05-07T10:49:02.111Z,19.60
2019-05-07T10:54:07.587Z,19.64
2019-05-07T10:59:13.044Z,19.89
2019-05-07T11:04:18.470Z,20.13
2019-05-07T11:09:23.957Z,20.23
2019-05-07T11:14:29.565Z,20.22
2019-05-07T11:19:35.068Z,19.89
2019-05-07T11:24:42.600Z,19.44
2019-05-07T11:29:47.942Z,18.94
2019-05-07T11:34:56.302Z,18.42
2019-05-07T11:40:03.047Z,17.87
2019-05-07T11:45:12.602Z,17.40
2019-05-07T11:50:33.056Z,17.02
2019-05-07T11:55:38.617Z,16.80
2019-05-07T12:00:52.580Z,16.71
2019-05-07T12:05:57.999Z,16.68
2019-05-07T12:11:03.435Z,16.96
2019-05-07T12:16:11.474Z,17.60
2019-05-07T12:21:20.786Z,18.51
2019-05-07T12:26:23.196Z,19.15
2019-05-07T12:32:05.486Z,19.63
2019-05-07T12:37:12.281Z,19.53
2019-05-07T12:42:18.781Z,19.52
2019-05-07T12:47:24.765Z,19.74
2019-05-07T12:52:36.055Z,20.01
2019-05-07T12:57:42.066Z,20.57
2019-05-07T13:03:07.854Z,21.04
2019-05-07T13:08:13.290Z,21.15
2019-05-07T13:13:18.778Z,21.02
2019-05-07T13:18:24.580Z,20.95
2019-05-07T13:23:31.835Z,21.13
2019-05-07T13:28:37.393Z,21.27
2019-05-07T13:33:42.843Z,21.30
2019-05-07T13:39:02.423Z,21.30
2019-05-07T13:44:26.849Z,21.32
2019-05-07T13:49:32.383Z,21.40
2019-05-07T13:54:38.023Z,21.52
2019-05-07T13:59:44.038Z,21.67
2019-05-07T14:04:49.531Z,21.72
2019-05-07T14:09:54.966Z,21.55
2019-05-07T14:15:02.142Z,21.50
2019-05-07T14:20:08.114Z,21.54
2019-05-07T14:25:13.610Z,21.44
2019-05-07T14:30:21.746Z,21.30
2019-05-07T14:35:32.683Z,21.23
2019-05-07T14:40:38.188Z,21.19
2019-05-07T14:45:43.649Z,21.16
2019-05-07T14:50:49.109Z,21.15
2019-05-07T14:55:54.599Z,20.97
2019-05-07T15:01:02.275Z,20.71
2019-05-07T15:06:07.169Z,20.36
2019-05-07T15:11:12.875Z,20.12
2019-05-07T15:16:18.292Z,19.96
2019-05-07T15:21:24.127Z,19.96
2019-05-07T15:26:29.645Z,19.94
2019-05-07T15:31:52.399Z,19.81
2019-05-07T15:36:57.834Z,19.82
2019-05-07T15:42:03.252Z,19.91
2019-05-07T15:47:13.370Z,19.94
2019-05-07T15:52:24.523Z,19.78
2019-05-07T15:57:30.274Z,19.59
2019-05-07T16:02:38.808Z,19.42
2019-05-07T16:07:45.998Z,19.30
2019-05-07T16:12:53.064Z,19.11
2019-05-07T16:18:02.967Z,18.96
2019-05-07T16:23:14.728Z,19.03
2019-05-07T16:28:15.876Z,19.06
2019-05-07T16:33:21.418Z,18.68
2019-05-07T16:38:26.867Z,18.37
2019-05-07T16:43:32.464Z,18.43
2019-05-07T16:48:37.920Z,18.44
2019-05-07T16:53:43.355Z,18.31
2019-05-07T16:58:53.248Z,18.27
2019-05-07T17:04:00.143Z,18.20
2019-05-07T17:09:14.638Z,17.95
2019-05-07T17:14:20.119Z,17.69
2019-05-07T17:19:25.563Z,17.61
2019-05-07T17:24:32.874Z,17.46
2019-05-07T17:29:38.137Z,17.35
2019-05-07T17:34:43.664Z,17.30
2019-05-07T17:39:49.099Z,17.17
2019-05-07T17:44:54.488Z,16.89
2019-05-07T17:50:02.043Z,16.54
2019-05-07T17:55:10.131Z,16.28
2019-05-07T18:00:15.707Z,16.14
2019-05-07T18:05:21.640Z,16.03
2019-05-07T18:10:27.231Z,15.90
2019-05-07T18:15:33.174Z,15.72
2019-05-07T18:20:38.674Z,15.58
2019-05-07T18:25:44.271Z,15.49
2019-05-07T18:30:49.968Z,15.40
2019-05-07T18:35:55.348Z,15.35
2019-05-07T18:41:02.654Z,15.25
2019-05-07T18:46:08.558Z,15.09
2019-05-07T18:51:14.102Z,14.90
2019-05-07T18:56:21.892Z,14.73
2019-05-07T19:01:28.570Z,14.58
2019-05-07T19:06:34.108Z,14.41
2019-05-07T19:11:39.761Z,14.31
2019-05-07T19:16:45.322Z,14.27
2019-05-07T19:21:52.783Z,14.24
2019-05-07T19:26:57.992Z,14.16
2019-05-07T19:32:04.273Z,14.09
2019-05-07T19:37:09.894Z,14.00
2019-05-07T19:42:15.369Z,13.91
2019-05-07T19:47:23.070Z,13.84
2019-05-07T19:52:28.316Z,13.77
2019-05-07T19:57:39.151Z,13.70
2019-05-07T20:02:47.661Z,13.62
2019-05-07T20:07:55.596Z,13.53
2019-05-07T20:13:00.215Z,13.47
2019-05-07T20:18:05.913Z,13.40
2019-05-07T20:23:12.024Z,13.34
2019-05-07T20:28:17.553Z,13.29
2019-05-07T20:33:23.066Z,13.23
2019-05-07T20:38:28.676Z,13.21
2019-05-07T20:43:34.087Z,13.18
2019-05-07T20:48:42.141Z,13.12
2019-05-07T20:54:14.389Z,13.04
2019-05-07T20:59:21.917Z,12.93
2019-05-07T21:04:27.335Z,12.83
2019-05-07T21:09:33.008Z,12.76
2019-05-07T21:14:38.650Z,12.69
2019-05-07T21:19:44.064Z,12.61
2019-05-07T21:24:49.479Z,12.58
2019-05-07T21:29:54.888Z,12.55
2019-05-07T21:35:00.304Z,12.53
2019-05-07T21:40:06.199Z,12.51
2019-05-07T21:45:11.648Z,12.50
2019-05-07T21:50:17.053Z,12.47
2019-05-07T21:55:34.625Z,12.48
2019-05-07T22:00:54.392Z,12.45
2019-05-07T22:05:59.795Z,12.41
2019-05-07T22:11:05.403Z,12.36
2019-05-07T22:16:12.967Z,12.32
2019-05-07T22:21:20.163Z,12.33
2019-05-07T22:26:26.565Z,12.33
2019-05-07T22:32:09.053Z,12.29
2019-05-07T22:37:14.603Z,12.25
2019-05-07T22:42:22.223Z,12.25
2019-05-07T22:47:27.278Z,12.25
2019-05-07T22:52:32.790Z,12.24
2019-05-07T22:57:44.049Z,12.21
2019-05-07T23:02:51.704Z,12.16
2019-05-07T23:07:56.752Z,12.11
2019-05-07T23:13:04.258Z,12.03
2019-05-07T23:18:09.665Z,11.95
2019-05-07T23:23:15.085Z,11.89
2019-05-07T23:28:22.800Z,11.80
2019-05-07T23:33:27.633Z,11.69
2019-05-07T23:38:33.035Z,11.59
2019-05-07T23:43:38.709Z,11.53
2019-05-07T23:48:44.197Z,11.48
2019-05-07T23:53:51.825Z,11.44
2019-05-07T23:58:56.777Z,11.38
